sensor_id;sensor_type;location;lat;lon;timestamp;P1;durP1;ratioP1;P2;durP2;ratioP2
76589;SDS011;65471;55.908;37.880;2023-04-03T00:00:51;65.60;;;21.75;;
76589;SDS011;65471;55.908;37.880;2023-04-03T00:03:18;54.75;;;22.85;;
76589;SDS011;65471;55.908;37.880;2023-04-03T00:05:46;63.30;;;22.10;;
76589;SDS011;65471;55.908;37.880;2023-04-03T00:08:13;70.50;;;23.85;;
76589;SDS011;65471;55.908;37.880;2023-04-03T00:10:40;62.53;;;22.63;;
76589;SDS011;65471;55.908;37.880;2023-04-03T00:13:07;57.88;;;22.63;;
76589;SDS011;65471;55.908;37.880;2023-04-03T00:15:35;49.80;;;20.60;;
76589;SDS011;65471;55.908;37.880;2023-04-03T00:18:02;59.10;;;21.75;;
76589;SDS011;65471;55.908;37.880;2023-04-03T00:20:30;61.40;;;22.42;;
76589;SDS011;65471;55.908;37.880;2023-04-03T00:22:57;74.00;;;24.73;;
76589;SDS011;65471;55.908;37.880;2023-04-03T00:25:24;71.30;;;24.10;;
76589;SDS011;65471;55.908;37.880;2023-04-03T00:27:50;65.20;;;24.15;;
76589;SDS011;65471;55.908;37.880;2023-04-03T00:30:18;75.55;;;27.27;;
76589;SDS011;65471;55.908;37.880;2023-04-03T00:35:18;66.95;;;22.92;;
76589;SDS011;65471;55.908;37.880;2023-04-03T00:37:46;83.75;;;23.42;;
76589;SDS011;65471;55.908;37.880;2023-04-03T00:40:13;74.25;;;24.90;;
76589;SDS011;65471;55.908;37.880;2023-04-03T00:42:42;86.60;;;25.83;;
76589;SDS011;65471;55.908;37.880;2023-04-03T00:47:37;78.40;;;27.38;;
76589;SDS011;65471;55.908;37.880;2023-04-03T00:50:06;71.15;;;25.60;;
76589;SDS011;65471;55.908;37.880;2023-04-03T00:52:34;87.30;;;26.65;;
76589;SDS011;65471;55.908;37.880;2023-04-03T00:55:02;86.28;;;26.30;;
76589;SDS011;65471;55.908;37.880;2023-04-03T00:57:32;76.40;;;24.35;;
76589;SDS011;65471;55.908;37.880;2023-04-03T01:00:02;100.32;;;27.98;;
76589;SDS011;65471;55.908;37.880;2023-04-03T01:02:33;87.55;;;28.92;;
76589;SDS011;65471;55.908;37.880;2023-04-03T01:05:00;75.10;;;27.10;;
76589;SDS011;65471;55.908;37.880;2023-04-03T01:07:31;97.25;;;28.75;;
76589;SDS011;65471;55.908;37.880;2023-04-03T01:10:01;92.30;;;31.88;;
76589;SDS011;65471;55.908;37.880;2023-04-03T01:12:30;109.68;;;33.28;;
76589;SDS011;65471;55.908;37.880;2023-04-03T01:15:20;91.32;;;31.33;;
76589;SDS011;65471;55.908;37.880;2023-04-03T01:17:53;87.68;;;29.95;;
76589;SDS011;65471;55.908;37.880;2023-04-03T01:25:41;88.68;;;28.98;;
76589;SDS011;65471;55.908;37.880;2023-04-03T01:28:20;74.90;;;28.65;;
76589;SDS011;65471;55.908;37.880;2023-04-03T01:33:38;101.05;;;33.47;;
76589;SDS011;65471;55.908;37.880;2023-04-03T01:36:06;90.07;;;31.13;;
76589;SDS011;65471;55.908;37.880;2023-04-03T01:38:34;87.57;;;30.90;;
76589;SDS011;65471;55.908;37.880;2023-04-03T01:41:01;83.75;;;30.40;;
76589;SDS011;65471;55.908;37.880;2023-04-03T01:43:28;92.50;;;30.75;;
76589;SDS011;65471;55.908;37.880;2023-04-03T01:45:54;89.80;;;30.70;;
76589;SDS011;65471;55.908;37.880;2023-04-03T01:48:22;84.68;;;30.45;;
76589;SDS011;65471;55.908;37.880;2023-04-03T01:50:49;89.82;;;31.23;;
76589;SDS011;65471;55.908;37.880;2023-04-03T01:53:15;92.40;;;32.88;;
76589;SDS011;65471;55.908;37.880;2023-04-03T01:55:42;88.60;;;32.10;;
76589;SDS011;65471;55.908;37.880;2023-04-03T01:58:09;88.32;;;30.50;;
76589;SDS011;65471;55.908;37.880;2023-04-03T02:00:36;103.78;;;33.50;;
76589;SDS011;65471;55.908;37.880;2023-04-03T02:03:03;106.82;;;31.98;;
76589;SDS011;65471;55.908;37.880;2023-04-03T02:05:30;94.13;;;31.38;;
76589;SDS011;65471;55.908;37.880;2023-04-03T02:07:57;98.35;;;32.67;;
76589;SDS011;65471;55.908;37.880;2023-04-03T02:10:24;105.35;;;31.05;;
76589;SDS011;65471;55.908;37.880;2023-04-03T02:12:52;76.43;;;28.55;;
76589;SDS011;65471;55.908;37.880;2023-04-03T02:15:19;90.13;;;32.40;;
76589;SDS011;65471;55.908;37.880;2023-04-03T02:17:45;91.28;;;31.38;;
76589;SDS011;65471;55.908;37.880;2023-04-03T02:20:12;82.50;;;32.17;;
76589;SDS011;65471;55.908;37.880;2023-04-03T02:22:40;121.22;;;36.95;;
76589;SDS011;65471;55.908;37.880;2023-04-03T02:25:07;102.13;;;33.53;;
76589;SDS011;65471;55.908;37.880;2023-04-03T02:27:34;88.47;;;31.92;;
76589;SDS011;65471;55.908;37.880;2023-04-03T02:30:02;83.80;;;31.38;;
76589;SDS011;65471;55.908;37.880;2023-04-03T02:32:29;88.43;;;30.48;;
76589;SDS011;65471;55.908;37.880;2023-04-03T02:34:56;94.13;;;31.13;;
76589;SDS011;65471;55.908;37.880;2023-04-03T02:37:23;93.28;;;32.72;;
76589;SDS011;65471;55.908;37.880;2023-04-03T02:39:50;83.25;;;31.85;;
76589;SDS011;65471;55.908;37.880;2023-04-03T02:42:17;91.95;;;32.20;;
76589;SDS011;65471;55.908;37.880;2023-04-03T02:44:44;98.72;;;32.72;;
76589;SDS011;65471;55.908;37.880;2023-04-03T02:47:11;86.10;;;30.23;;
76589;SDS011;65471;55.908;37.880;2023-04-03T02:49:38;88.75;;;31.42;;
76589;SDS011;65471;55.908;37.880;2023-04-03T02:52:04;85.50;;;30.77;;
76589;SDS011;65471;55.908;37.880;2023-04-03T02:54:31;89.35;;;31.65;;
76589;SDS011;65471;55.908;37.880;2023-04-03T02:56:58;85.07;;;32.53;;
76589;SDS011;65471;55.908;37.880;2023-04-03T02:59:25;90.45;;;32.42;;
76589;SDS011;65471;55.908;37.880;2023-04-03T03:01:52;84.63;;;30.45;;
76589;SDS011;65471;55.908;37.880;2023-04-03T03:04:19;83.63;;;30.45;;
76589;SDS011;65471;55.908;37.880;2023-04-03T03:06:46;90.95;;;32.22;;
76589;SDS011;65471;55.908;37.880;2023-04-03T03:09:13;77.63;;;27.60;;
76589;SDS011;65471;55.908;37.880;2023-04-03T03:11:40;88.75;;;30.30;;
76589;SDS011;65471;55.908;37.880;2023-04-03T03:14:07;89.07;;;31.30;;
76589;SDS011;65471;55.908;37.880;2023-04-03T03:16:34;81.13;;;30.25;;
76589;SDS011;65471;55.908;37.880;2023-04-03T03:19:01;87.00;;;30.70;;
76589;SDS011;65471;55.908;37.880;2023-04-03T03:21:28;86.22;;;30.00;;
76589;SDS011;65471;55.908;37.880;2023-04-03T03:23:55;81.05;;;29.48;;
76589;SDS011;65471;55.908;37.880;2023-04-03T03:26:21;93.55;;;31.27;;
76589;SDS011;65471;55.908;37.880;2023-04-03T03:28:48;94.30;;;31.45;;
76589;SDS011;65471;55.908;37.880;2023-04-03T03:31:15;85.00;;;30.90;;
76589;SDS011;65471;55.908;37.880;2023-04-03T03:33:42;88.75;;;30.60;;
76589;SDS011;65471;55.908;37.880;2023-04-03T03:36:09;95.68;;;30.77;;
76589;SDS011;65471;55.908;37.880;2023-04-03T03:38:37;85.43;;;30.25;;
76589;SDS011;65471;55.908;37.880;2023-04-03T03:41:03;92.78;;;31.20;;
76589;SDS011;65471;55.908;37.880;2023-04-03T03:43:30;89.15;;;31.30;;
76589;SDS011;65471;55.908;37.880;2023-04-03T03:45:57;88.25;;;30.67;;
76589;SDS011;65471;55.908;37.880;2023-04-03T03:48:24;91.82;;;30.83;;
76589;SDS011;65471;55.908;37.880;2023-04-03T03:50:51;88.85;;;29.90;;
76589;SDS011;65471;55.908;37.880;2023-04-03T03:53:17;99.28;;;31.67;;
76589;SDS011;65471;55.908;37.880;2023-04-03T03:55:45;83.85;;;30.08;;
76589;SDS011;65471;55.908;37.880;2023-04-03T03:58:12;92.45;;;30.52;;
76589;SDS011;65471;55.908;37.880;2023-04-03T04:00:41;90.45;;;30.45;;
76589;SDS011;65471;55.908;37.880;2023-04-03T04:03:08;81.45;;;30.23;;
76589;SDS011;65471;55.908;37.880;2023-04-03T04:05:35;93.35;;;29.92;;
76589;SDS011;65471;55.908;37.880;2023-04-03T04:08:02;93.55;;;30.83;;
76589;SDS011;65471;55.908;37.880;2023-04-03T04:10:29;93.65;;;30.27;;
76589;SDS011;65471;55.908;37.880;2023-04-03T04:12:56;88.88;;;31.80;;
76589;SDS011;65471;55.908;37.880;2023-04-03T04:15:24;103.28;;;31.92;;
76589;SDS011;65471;55.908;37.880;2023-04-03T04:17:52;95.28;;;31.48;;
76589;SDS011;65471;55.908;37.880;2023-04-03T04:20:19;86.43;;;29.70;;
76589;SDS011;65471;55.908;37.880;2023-04-03T04:22:47;88.90;;;29.83;;
76589;SDS011;65471;55.908;37.880;2023-04-03T04:25:13;95.05;;;32.28;;
76589;SDS011;65471;55.908;37.880;2023-04-03T04:27:40;102.70;;;33.70;;
76589;SDS011;65471;55.908;37.880;2023-04-03T04:30:07;100.05;;;33.75;;
76589;SDS011;65471;55.908;37.880;2023-04-03T04:32:35;90.53;;;32.60;;
76589;SDS011;65471;55.908;37.880;2023-04-03T04:35:02;118.22;;;33.53;;
76589;SDS011;65471;55.908;37.880;2023-04-03T04:37:30;116.32;;;34.55;;
76589;SDS011;65471;55.908;37.880;2023-04-03T04:39:57;111.40;;;35.75;;
76589;SDS011;65471;55.908;37.880;2023-04-03T04:42:24;102.22;;;35.15;;
76589;SDS011;65471;55.908;37.880;2023-04-03T04:44:51;112.22;;;38.15;;
76589;SDS011;65471;55.908;37.880;2023-04-03T04:47:17;139.50;;;42.38;;
76589;SDS011;65471;55.908;37.880;2023-04-03T04:49:44;117.78;;;38.75;;
76589;SDS011;65471;55.908;37.880;2023-04-03T04:52:13;131.18;;;41.97;;
76589;SDS011;65471;55.908;37.880;2023-04-03T04:54:41;134.60;;;43.38;;
76589;SDS011;65471;55.908;37.880;2023-04-03T04:57:08;124.05;;;40.80;;
76589;SDS011;65471;55.908;37.880;2023-04-03T04:59:35;120.75;;;41.00;;
76589;SDS011;65471;55.908;37.880;2023-04-03T05:02:01;128.85;;;41.08;;
76589;SDS011;65471;55.908;37.880;2023-04-03T05:04:28;120.70;;;38.83;;
76589;SDS011;65471;55.908;37.880;2023-04-03T05:06:55;111.82;;;39.70;;
76589;SDS011;65471;55.908;37.880;2023-04-03T05:09:22;113.07;;;40.92;;
76589;SDS011;65471;55.908;37.880;2023-04-03T05:11:49;115.60;;;38.92;;
76589;SDS011;65471;55.908;37.880;2023-04-03T05:14:16;115.35;;;39.70;;
76589;SDS011;65471;55.908;37.880;2023-04-03T05:16:43;94.45;;;36.90;;
76589;SDS011;65471;55.908;37.880;2023-04-03T05:19:10;99.25;;;37.33;;
76589;SDS011;65471;55.908;37.880;2023-04-03T05:21:37;92.85;;;35.15;;
76589;SDS011;65471;55.908;37.880;2023-04-03T05:24:03;80.20;;;32.95;;
76589;SDS011;65471;55.908;37.880;2023-04-03T05:26:31;100.13;;;32.95;;
76589;SDS011;65471;55.908;37.880;2023-04-03T05:28:58;74.30;;;30.25;;
76589;SDS011;65471;55.908;37.880;2023-04-03T05:31:25;70.15;;;28.95;;
76589;SDS011;65471;55.908;37.880;2023-04-03T05:33:52;75.07;;;27.63;;
76589;SDS011;65471;55.908;37.880;2023-04-03T05:36:19;64.05;;;26.02;;
76589;SDS011;65471;55.908;37.880;2023-04-03T05:38:46;79.13;;;26.98;;
76589;SDS011;65471;55.908;37.880;2023-04-03T05:41:14;65.90;;;26.80;;
76589;SDS011;65471;55.908;37.880;2023-04-03T05:43:41;59.42;;;25.52;;
76589;SDS011;65471;55.908;37.880;2023-04-03T05:46:09;64.43;;;25.10;;
76589;SDS011;65471;55.908;37.880;2023-04-03T05:48:38;63.92;;;26.13;;
76589;SDS011;65471;55.908;37.880;2023-04-03T05:51:05;64.00;;;24.70;;
76589;SDS011;65471;55.908;37.880;2023-04-03T05:53:39;61.53;;;26.23;;
76589;SDS011;65471;55.908;37.880;2023-04-03T05:56:07;52.25;;;24.20;;
76589;SDS011;65471;55.908;37.880;2023-04-03T05:58:34;58.65;;;25.48;;
76589;SDS011;65471;55.908;37.880;2023-04-03T06:01:01;50.90;;;22.55;;
76589;SDS011;65471;55.908;37.880;2023-04-03T06:03:27;49.13;;;23.73;;
76589;SDS011;65471;55.908;37.880;2023-04-03T06:05:55;64.90;;;24.02;;
76589;SDS011;65471;55.908;37.880;2023-04-03T06:08:21;55.75;;;23.40;;
76589;SDS011;65471;55.908;37.880;2023-04-03T06:10:50;55.92;;;23.10;;
76589;SDS011;65471;55.908;37.880;2023-04-03T06:13:17;59.35;;;23.27;;
76589;SDS011;65471;55.908;37.880;2023-04-03T06:15:44;49.63;;;22.27;;
76589;SDS011;65471;55.908;37.880;2023-04-03T06:18:11;70.05;;;22.35;;
76589;SDS011;65471;55.908;37.880;2023-04-03T06:20:38;62.88;;;23.65;;
76589;SDS011;65471;55.908;37.880;2023-04-03T06:23:05;53.83;;;23.30;;
76589;SDS011;65471;55.908;37.880;2023-04-03T06:25:34;44.95;;;18.67;;
76589;SDS011;65471;55.908;37.880;2023-04-03T06:28:01;38.17;;;17.05;;
76589;SDS011;65471;55.908;37.880;2023-04-03T06:30:28;39.10;;;16.52;;
76589;SDS011;65471;55.908;37.880;2023-04-03T06:32:55;52.97;;;18.33;;
76589;SDS011;65471;55.908;37.880;2023-04-03T06:35:22;33.65;;;16.52;;
76589;SDS011;65471;55.908;37.880;2023-04-03T06:37:50;40.38;;;15.88;;
76589;SDS011;65471;55.908;37.880;2023-04-03T06:40:18;37.38;;;17.20;;
76589;SDS011;65471;55.908;37.880;2023-04-03T06:42:48;27.48;;;16.48;;
76589;SDS011;65471;55.908;37.880;2023-04-03T06:45:16;43.97;;;17.27;;
76589;SDS011;65471;55.908;37.880;2023-04-03T06:47:43;33.00;;;16.30;;
76589;SDS011;65471;55.908;37.880;2023-04-03T06:50:11;36.23;;;18.87;;
76589;SDS011;65471;55.908;37.880;2023-04-03T06:52:40;49.47;;;18.90;;
76589;SDS011;65471;55.908;37.880;2023-04-03T06:55:07;46.88;;;18.73;;
76589;SDS011;65471;55.908;37.880;2023-04-03T06:57:35;47.37;;;18.70;;
76589;SDS011;65471;55.908;37.880;2023-04-03T07:00:04;39.50;;;17.25;;
76589;SDS011;65471;55.908;37.880;2023-04-03T07:02:32;45.63;;;18.48;;
76589;SDS011;65471;55.908;37.880;2023-04-03T07:04:59;38.00;;;17.17;;
76589;SDS011;65471;55.908;37.880;2023-04-03T07:07:26;42.40;;;16.80;;
76589;SDS011;65471;55.908;37.880;2023-04-03T07:09:53;41.13;;;19.02;;
76589;SDS011;65471;55.908;37.880;2023-04-03T07:12:20;43.25;;;17.85;;
76589;SDS011;65471;55.908;37.880;2023-04-03T07:14:47;43.55;;;16.67;;
76589;SDS011;65471;55.908;37.880;2023-04-03T07:17:13;45.28;;;17.27;;
76589;SDS011;65471;55.908;37.880;2023-04-03T07:19:40;46.10;;;17.20;;
76589;SDS011;65471;55.908;37.880;2023-04-03T07:22:07;47.58;;;17.50;;
76589;SDS011;65471;55.908;37.880;2023-04-03T07:24:34;46.15;;;19.35;;
76589;SDS011;65471;55.908;37.880;2023-04-03T07:27:01;43.53;;;19.02;;
76589;SDS011;65471;55.908;37.880;2023-04-03T07:29:29;49.58;;;18.92;;
76589;SDS011;65471;55.908;37.880;2023-04-03T07:31:56;56.47;;;19.05;;
76589;SDS011;65471;55.908;37.880;2023-04-03T07:34:23;55.65;;;19.05;;
76589;SDS011;65471;55.908;37.880;2023-04-03T07:36:50;41.85;;;18.08;;
76589;SDS011;65471;55.908;37.880;2023-04-03T07:39:17;53.22;;;19.42;;
76589;SDS011;65471;55.908;37.880;2023-04-03T07:41:43;49.50;;;17.80;;
76589;SDS011;65471;55.908;37.880;2023-04-03T07:44:10;41.20;;;19.00;;
76589;SDS011;65471;55.908;37.880;2023-04-03T07:46:37;44.28;;;18.25;;
76589;SDS011;65471;55.908;37.880;2023-04-03T07:49:05;38.95;;;18.27;;
76589;SDS011;65471;55.908;37.880;2023-04-03T07:51:32;46.45;;;19.08;;
76589;SDS011;65471;55.908;37.880;2023-04-03T07:53:58;55.72;;;20.75;;
76589;SDS011;65471;55.908;37.880;2023-04-03T07:56:25;38.63;;;19.30;;
76589;SDS011;65471;55.908;37.880;2023-04-03T07:58:52;48.22;;;19.02;;
76589;SDS011;65471;55.908;37.880;2023-04-03T08:01:20;49.40;;;20.63;;
76589;SDS011;65471;55.908;37.880;2023-04-03T08:03:47;40.00;;;19.88;;
76589;SDS011;65471;55.908;37.880;2023-04-03T08:06:14;43.72;;;19.80;;
76589;SDS011;65471;55.908;37.880;2023-04-03T08:08:45;41.53;;;19.70;;
76589;SDS011;65471;55.908;37.880;2023-04-03T08:11:12;43.28;;;20.73;;
76589;SDS011;65471;55.908;37.880;2023-04-03T08:13:39;62.58;;;21.98;;
76589;SDS011;65471;55.908;37.880;2023-04-03T08:18:44;52.20;;;21.35;;
76589;SDS011;65471;55.908;37.880;2023-04-03T08:21:11;59.47;;;21.02;;
76589;SDS011;65471;55.908;37.880;2023-04-03T08:23:39;61.05;;;23.60;;
76589;SDS011;65471;55.908;37.880;2023-04-03T08:26:12;62.35;;;23.48;;
76589;SDS011;65471;55.908;37.880;2023-04-03T08:28:40;55.67;;;23.35;;
76589;SDS011;65471;55.908;37.880;2023-04-03T08:31:09;59.80;;;21.83;;
76589;SDS011;65471;55.908;37.880;2023-04-03T08:33:38;62.15;;;23.02;;
76589;SDS011;65471;55.908;37.880;2023-04-03T08:36:06;53.70;;;21.95;;
76589;SDS011;65471;55.908;37.880;2023-04-03T08:38:42;44.30;;;20.63;;
76589;SDS011;65471;55.908;37.880;2023-04-03T08:41:18;59.88;;;23.27;;
76589;SDS011;65471;55.908;37.880;2023-04-03T08:49:47;52.72;;;20.00;;
76589;SDS011;65471;55.908;37.880;2023-04-03T08:52:22;54.17;;;20.42;;
76589;SDS011;65471;55.908;37.880;2023-04-03T08:54:54;59.55;;;22.25;;
76589;SDS011;65471;55.908;37.880;2023-04-03T08:57:30;48.47;;;21.73;;
76589;SDS011;65471;55.908;37.880;2023-04-03T09:00:04;52.65;;;23.77;;
76589;SDS011;65471;55.908;37.880;2023-04-03T09:02:35;51.15;;;21.17;;
76589;SDS011;65471;55.908;37.880;2023-04-03T09:05:13;39.97;;;19.17;;
76589;SDS011;65471;55.908;37.880;2023-04-03T09:07:55;40.30;;;19.50;;
76589;SDS011;65471;55.908;37.880;2023-04-03T09:10:27;52.45;;;20.15;;
76589;SDS011;65471;55.908;37.880;2023-04-03T09:13:10;47.42;;;18.90;;
76589;SDS011;65471;55.908;37.880;2023-04-03T09:15:39;53.92;;;19.58;;
76589;SDS011;65471;55.908;37.880;2023-04-03T09:24:12;39.87;;;18.73;;
76589;SDS011;65471;55.908;37.880;2023-04-03T09:28:56;41.72;;;18.88;;
76589;SDS011;65471;55.908;37.880;2023-04-03T09:31:29;60.80;;;20.08;;
76589;SDS011;65471;55.908;37.880;2023-04-03T09:34:14;56.75;;;19.55;;
76589;SDS011;65471;55.908;37.880;2023-04-03T09:36:55;38.90;;;18.00;;
76589;SDS011;65471;55.908;37.880;2023-04-03T09:39:25;46.28;;;19.33;;
76589;SDS011;65471;55.908;37.880;2023-04-03T09:44:25;44.55;;;17.90;;
76589;SDS011;65471;55.908;37.880;2023-04-03T09:46:53;38.05;;;17.48;;
76589;SDS011;65471;55.908;37.880;2023-04-03T09:49:20;41.58;;;18.45;;
76589;SDS011;65471;55.908;37.880;2023-04-03T09:51:47;46.22;;;19.23;;
76589;SDS011;65471;55.908;37.880;2023-04-03T09:57:07;41.45;;;17.10;;
76589;SDS011;65471;55.908;37.880;2023-04-03T10:00:03;52.65;;;18.10;;
76589;SDS011;65471;55.908;37.880;2023-04-03T10:05:03;48.88;;;19.73;;
76589;SDS011;65471;55.908;37.880;2023-04-03T10:07:50;45.80;;;21.65;;
76589;SDS011;65471;55.908;37.880;2023-04-03T10:10:28;35.17;;;17.58;;
76589;SDS011;65471;55.908;37.880;2023-04-03T10:18:30;45.50;;;18.17;;
76589;SDS011;65471;55.908;37.880;2023-04-03T10:21:06;58.13;;;18.65;;
76589;SDS011;65471;55.908;37.880;2023-04-03T10:24:00;50.15;;;17.27;;
76589;SDS011;65471;55.908;37.880;2023-04-03T10:29:21;75.68;;;23.55;;
76589;SDS011;65471;55.908;37.880;2023-04-03T10:52:14;42.13;;;14.93;;
76589;SDS011;65471;55.908;37.880;2023-04-03T10:57:24;34.53;;;14.82;;
76589;SDS011;65471;55.908;37.880;2023-04-03T10:59:55;36.88;;;14.15;;
76589;SDS011;65471;55.908;37.880;2023-04-03T11:02:36;37.60;;;14.43;;
76589;SDS011;65471;55.908;37.880;2023-04-03T11:05:15;25.58;;;12.07;;
76589;SDS011;65471;55.908;37.880;2023-04-03T11:07:52;40.33;;;12.88;;
76589;SDS011;65471;55.908;37.880;2023-04-03T11:12:52;43.45;;;13.23;;
76589;SDS011;65471;55.908;37.880;2023-04-03T11:15:43;19.40;;;11.02;;
76589;SDS011;65471;55.908;37.880;2023-04-03T11:18:14;36.75;;;13.18;;
76589;SDS011;65471;55.908;37.880;2023-04-03T11:21:02;41.08;;;12.15;;
76589;SDS011;65471;55.908;37.880;2023-04-03T11:23:35;25.20;;;11.15;;
76589;SDS011;65471;55.908;37.880;2023-04-03T11:26:16;36.63;;;12.25;;
76589;SDS011;65471;55.908;37.880;2023-04-03T11:28:51;35.97;;;11.95;;
76589;SDS011;65471;55.908;37.880;2023-04-03T11:36:33;31.52;;;11.55;;
76589;SDS011;65471;55.908;37.880;2023-04-03T11:41:47;29.10;;;11.15;;
76589;SDS011;65471;55.908;37.880;2023-04-03T11:47:00;26.67;;;11.77;;
76589;SDS011;65471;55.908;37.880;2023-04-03T12:18:57;34.72;;;14.32;;
76589;SDS011;65471;55.908;37.880;2023-04-03T12:24:28;25.50;;;12.77;;
76589;SDS011;65471;55.908;37.880;2023-04-03T12:38:10;43.22;;;12.70;;
76589;SDS011;65471;55.908;37.880;2023-04-03T12:44:19;41.67;;;13.57;;
76589;SDS011;65471;55.908;37.880;2023-04-03T12:46:53;31.50;;;13.35;;
76589;SDS011;65471;55.908;37.880;2023-04-03T12:55:25;18.38;;;11.60;;
76589;SDS011;65471;55.908;37.880;2023-04-03T12:57:52;30.35;;;12.80;;
76589;SDS011;65471;55.908;37.880;2023-04-03T13:02:59;27.17;;;12.85;;
76589;SDS011;65471;55.908;37.880;2023-04-03T13:05:31;33.60;;;13.57;;
76589;SDS011;65471;55.908;37.880;2023-04-03T13:08:08;28.58;;;12.27;;
76589;SDS011;65471;55.908;37.880;2023-04-03T13:13:53;34.55;;;12.55;;
76589;SDS011;65471;55.908;37.880;2023-04-03T13:16:24;35.83;;;12.73;;
76589;SDS011;65471;55.908;37.880;2023-04-03T13:18:53;36.80;;;12.82;;
76589;SDS011;65471;55.908;37.880;2023-04-03T13:21:39;30.88;;;12.60;;
76589;SDS011;65471;55.908;37.880;2023-04-03T13:24:06;32.60;;;12.23;;
76589;SDS011;65471;55.908;37.880;2023-04-03T13:26:41;29.48;;;13.15;;
76589;SDS011;65471;55.908;37.880;2023-04-03T13:29:26;31.47;;;13.00;;
76589;SDS011;65471;55.908;37.880;2023-04-03T13:31:58;36.15;;;13.32;;
76589;SDS011;65471;55.908;37.880;2023-04-03T13:34:34;37.95;;;12.48;;
76589;SDS011;65471;55.908;37.880;2023-04-03T13:37:11;28.95;;;12.70;;
76589;SDS011;65471;55.908;37.880;2023-04-03T13:39:55;57.60;;;14.40;;
76589;SDS011;65471;55.908;37.880;2023-04-03T13:42:41;40.85;;;14.40;;
76589;SDS011;65471;55.908;37.880;2023-04-03T13:47:40;34.40;;;13.55;;
76589;SDS011;65471;55.908;37.880;2023-04-03T13:50:21;41.92;;;15.82;;
76589;SDS011;65471;55.908;37.880;2023-04-03T13:53:01;71.50;;;17.10;;
76589;SDS011;65471;55.908;37.880;2023-04-03T13:55:37;55.28;;;18.08;;
76589;SDS011;65471;55.908;37.880;2023-04-03T13:58:24;41.10;;;17.70;;
76589;SDS011;65471;55.908;37.880;2023-04-03T14:03:47;44.33;;;18.63;;
76589;SDS011;65471;55.908;37.880;2023-04-03T14:06:25;39.25;;;17.05;;
76589;SDS011;65471;55.908;37.880;2023-04-03T14:08:52;44.10;;;16.90;;
76589;SDS011;65471;55.908;37.880;2023-04-03T14:11:21;25.85;;;14.50;;
76589;SDS011;65471;55.908;37.880;2023-04-03T14:13:50;45.42;;;15.98;;
76589;SDS011;65471;55.908;37.880;2023-04-03T14:16:18;45.95;;;15.90;;
76589;SDS011;65471;55.908;37.880;2023-04-03T14:18:47;44.65;;;16.48;;
76589;SDS011;65471;55.908;37.880;2023-04-03T14:23:44;40.45;;;16.38;;
76589;SDS011;65471;55.908;37.880;2023-04-03T14:26:12;46.38;;;13.75;;
76589;SDS011;65471;55.908;37.880;2023-04-03T14:28:43;36.15;;;15.13;;
76589;SDS011;65471;55.908;37.880;2023-04-03T14:31:12;39.20;;;16.23;;
76589;SDS011;65471;55.908;37.880;2023-04-03T14:33:40;36.05;;;14.95;;
76589;SDS011;65471;55.908;37.880;2023-04-03T14:36:13;35.88;;;14.50;;
76589;SDS011;65471;55.908;37.880;2023-04-03T14:38:44;36.47;;;15.18;;
76589;SDS011;65471;55.908;37.880;2023-04-03T14:41:15;26.15;;;14.77;;
76589;SDS011;65471;55.908;37.880;2023-04-03T14:43:44;33.55;;;15.25;;
76589;SDS011;65471;55.908;37.880;2023-04-03T14:46:14;36.63;;;14.32;;
76589;SDS011;65471;55.908;37.880;2023-04-03T14:48:49;30.33;;;15.27;;
76589;SDS011;65471;55.908;37.880;2023-04-03T14:51:16;33.03;;;13.90;;
76589;SDS011;65471;55.908;37.880;2023-04-03T14:53:43;28.08;;;14.88;;
76589;SDS011;65471;55.908;37.880;2023-04-03T14:56:12;33.57;;;15.37;;
76589;SDS011;65471;55.908;37.880;2023-04-03T14:58:45;27.55;;;14.30;;
76589;SDS011;65471;55.908;37.880;2023-04-03T15:01:16;34.63;;;15.13;;
76589;SDS011;65471;55.908;37.880;2023-04-03T15:03:43;35.47;;;14.97;;
76589;SDS011;65471;55.908;37.880;2023-04-03T15:06:11;39.90;;;15.45;;
76589;SDS011;65471;55.908;37.880;2023-04-03T15:08:40;29.27;;;15.15;;
76589;SDS011;65471;55.908;37.880;2023-04-03T15:11:09;34.80;;;14.52;;
76589;SDS011;65471;55.908;37.880;2023-04-03T15:13:37;26.23;;;16.15;;
76589;SDS011;65471;55.908;37.880;2023-04-03T15:16:04;33.35;;;14.20;;
76589;SDS011;65471;55.908;37.880;2023-04-03T15:18:39;33.90;;;14.60;;
76589;SDS011;65471;55.908;37.880;2023-04-03T15:21:06;27.02;;;15.48;;
76589;SDS011;65471;55.908;37.880;2023-04-03T15:23:32;26.98;;;14.68;;
76589;SDS011;65471;55.908;37.880;2023-04-03T15:25:59;33.25;;;15.68;;
76589;SDS011;65471;55.908;37.880;2023-04-03T15:28:30;36.85;;;14.88;;
76589;SDS011;65471;55.908;37.880;2023-04-03T15:31:00;27.83;;;13.77;;
76589;SDS011;65471;55.908;37.880;2023-04-03T15:33:27;31.75;;;14.73;;
76589;SDS011;65471;55.908;37.880;2023-04-03T15:35:54;64.05;;;24.98;;
76589;SDS011;65471;55.908;37.880;2023-04-03T15:38:32;57.17;;;23.35;;
76589;SDS011;65471;55.908;37.880;2023-04-03T15:40:59;56.67;;;26.38;;
76589;SDS011;65471;55.908;37.880;2023-04-03T15:43:26;56.63;;;25.02;;
76589;SDS011;65471;55.908;37.880;2023-04-03T15:45:55;68.15;;;31.40;;
76589;SDS011;65471;55.908;37.880;2023-04-03T15:48:23;85.28;;;36.20;;
76589;SDS011;65471;55.908;37.880;2023-04-03T15:50:50;244.00;;;101.75;;
76589;SDS011;65471;55.908;37.880;2023-04-03T15:53:17;165.80;;;71.30;;
76589;SDS011;65471;55.908;37.880;2023-04-03T15:55:45;150.38;;;63.10;;
76589;SDS011;65471;55.908;37.880;2023-04-03T15:58:12;134.13;;;57.92;;
76589;SDS011;65471;55.908;37.880;2023-04-03T16:00:51;93.68;;;42.95;;
76589;SDS011;65471;55.908;37.880;2023-04-03T16:03:18;64.05;;;28.48;;
76589;SDS011;65471;55.908;37.880;2023-04-03T16:05:47;81.32;;;38.13;;
76589;SDS011;65471;55.908;37.880;2023-04-03T16:08:15;74.15;;;33.03;;
76589;SDS011;65471;55.908;37.880;2023-04-03T16:10:44;60.15;;;27.17;;
76589;SDS011;65471;55.908;37.880;2023-04-03T16:13:13;71.30;;;26.35;;
76589;SDS011;65471;55.908;37.880;2023-04-03T16:15:41;82.95;;;36.92;;
76589;SDS011;65471;55.908;37.880;2023-04-03T16:18:08;117.40;;;46.95;;
76589;SDS011;65471;55.908;37.880;2023-04-03T16:20:36;160.07;;;67.97;;
76589;SDS011;65471;55.908;37.880;2023-04-03T16:23:03;215.63;;;109.72;;
76589;SDS011;65471;55.908;37.880;2023-04-03T16:25:31;164.90;;;82.07;;
76589;SDS011;65471;55.908;37.880;2023-04-03T16:27:58;182.05;;;89.88;;
76589;SDS011;65471;55.908;37.880;2023-04-03T16:30:25;136.80;;;64.15;;
76589;SDS011;65471;55.908;37.880;2023-04-03T16:32:52;140.57;;;63.33;;
76589;SDS011;65471;55.908;37.880;2023-04-03T16:35:20;110.65;;;50.22;;
76589;SDS011;65471;55.908;37.880;2023-04-03T16:37:46;85.43;;;34.25;;
76589;SDS011;65471;55.908;37.880;2023-04-03T16:40:14;65.40;;;24.55;;
76589;SDS011;65471;55.908;37.880;2023-04-03T16:42:40;58.97;;;24.95;;
76589;SDS011;65471;55.908;37.880;2023-04-03T16:45:07;72.97;;;28.92;;
76589;SDS011;65471;55.908;37.880;2023-04-03T16:47:38;58.42;;;27.10;;
76589;SDS011;65471;55.908;37.880;2023-04-03T16:50:05;71.03;;;26.60;;